Time;durP1;ratioP1;P1;durP2;ratioP2;P2;SDS_P1;SDS_P2;PMS_P1;PMS_P2;Temp;Humidity;BMP_temperature;BMP_pressure;BME280_temperature;BME280_humidity;BME280_pressure;Samples;Min_cycle;Max_cycle;Signal;HPM_P1;HPM_P2
2022/06/27 00:00:32;;;;;;;4.15;2.45;;;;;;;;;;5033473;28;20234;-83
2022/06/27 00:02:59;;;;;;;3.95;2.47;;;;;;;;;;5033659;28;20610;-85
2022/06/27 00:05:26;;;;;;;3.38;2.63;;;;;;;;;;5033247;28;20234;-84
2022/06/27 00:07:54;;;;;;;3.50;2.70;;;;;;;;;;5034153;28;20211;-84
2022/06/27 00:10:21;;;;;;;5.35;2.30;;;;;;;;;;5033238;28;20242;-84
2022/06/27 00:12:48;;;;;;;3.00;2.72;;;;;;;;;;5034055;28;20226;-84
2022/06/27 00:15:15;;;;;;;2.75;2.47;;;;;;;;;;5033308;28;20253;-84
2022/06/27 00:17:43;;;;;;;4.53;2.50;;;;;;;;;;5033987;28;20211;-84
2022/06/27 00:20:10;;;;;;;2.97;2.55;;;;;;;;;;5033392;28;20614;-84
2022/06/27 00:22:37;;;;;;;3.72;3.00;;;;;;;;;;5033357;28;20227;-84
2022/06/27 00:25:06;;;;;;;3.33;2.50;;;;;;;;;;5033175;28;20242;-84
2022/06/27 00:27:33;;;;;;;3.53;3.00;;;;;;;;;;5033498;28;20215;-85
2022/06/27 00:30:00;;;;;;;2.60;2.40;;;;;;;;;;5033440;28;20238;-85
2022/06/27 00:32:29;;;;;;;3.97;2.42;;;;;;;;;;5033770;28;20234;-84
2022/06/27 00:34:56;;;;;;;3.45;2.65;;;;;;;;;;5033138;28;20253;-84
2022/06/27 00:37:24;;;;;;;2.90;2.60;;;;;;;;;;5033854;28;20210;-84
2022/06/27 00:39:52;;;;;;;4.13;3.00;;;;;;;;;;5042861;28;20239;-84
2022/06/27 00:42:20;;;;;;;3.45;2.60;;;;;;;;;;5033236;28;20715;-86
2022/06/27 00:44:47;;;;;;;5.00;2.78;;;;;;;;;;5032946;28;20230;-85
2022/06/27 00:47:15;;;;;;;2.92;2.60;;;;;;;;;;5033259;28;20207;-86
2022/06/27 00:49:42;;;;;;;4.72;1.95;;;;;;;;;;5032984;28;20235;-86
2022/06/27 00:52:12;;;;;;;4.25;2.20;;;;;;;;;;5033718;28;20227;-85
2022/06/27 00:54:42;;;;;;;4.00;2.47;;;;;;;;;;5033074;28;20238;-85
2022/06/27 00:57:09;;;;;;;5.90;2.70;;;;;;;;;;5033095;28;20214;-83
2022/06/27 00:59:38;;;;;;;4.80;2.65;;;;;;;;;;5034662;28;20242;-83
2022/06/27 01:02:05;;;;;;;4.65;3.00;;;;;;;;;;5028834;28;20235;-83
2022/06/27 01:04:33;;;;;;;9.10;3.05;;;;;;;;;;5034255;28;20234;-83
2022/06/27 01:07:00;;;;;;;5.07;2.80;;;;;;;;;;5030823;28;20211;-83
2022/06/27 01:09:27;;;;;;;3.40;3.00;;;;;;;;;;5017204;28;20306;-83
2022/06/27 01:11:54;;;;;;;3.78;2.83;;;;;;;;;;5013264;28;20227;-83
2022/06/27 01:14:21;;;;;;;3.20;2.88;;;;;;;;;;5012512;28;20235;-83
2022/06/27 01:16:50;;;;;;;5.93;3.17;;;;;;;;;;5013497;28;20207;-83
2022/06/27 01:19:18;;;;;;;7.55;3.33;;;;;;;;;;5012743;28;20262;-84
2022/06/27 01:21:46;;;;;;;4.00;2.85;;;;;;;;;;5012902;28;20770;-83
2022/06/27 01:24:15;;;;;;;4.32;2.78;;;;;;;;;;5011919;28;20242;-84
2022/06/27 01:26:43;;;;;;;4.13;3.00;;;;;;;;;;5012885;28;20672;-83
2022/06/27 01:29:11;;;;;;;3.08;2.75;;;;;;;;;;5012083;28;20730;-83
2022/06/27 01:31:38;;;;;;;2.97;2.78;;;;;;;;;;5012862;28;20223;-83
2022/06/27 01:34:06;;;;;;;4.18;2.60;;;;;;;;;;5012178;28;20610;-83
2022/06/27 01:36:45;;;;;;;4.78;2.70;;;;;;;;;;5012888;28;20692;-83
2022/06/27 01:39:15;;;;;;;2.85;2.63;;;;;;;;;;5012495;28;20234;-83
2022/06/27 01:41:43;;;;;;;4.30;3.00;;;;;;;;;;5012924;28;20227;-83
2022/06/27 01:44:11;;;;;;;6.05;2.90;;;;;;;;;;5012301;28;20231;-83
2022/06/27 01:46:42;;;;;;;4.07;3.05;;;;;;;;;;5012992;28;20211;-83
2022/06/27 01:49:09;;;;;;;4.45;3.13;;;;;;;;;;5012142;28;20238;-83
2022/06/27 01:51:37;;;;;;;5.13;3.40;;;;;;;;;;5012469;28;20731;-83
2022/06/27 01:54:04;;;;;;;5.60;3.72;;;;;;;;;;5012143;28;20242;-83
2022/06/27 01:56:33;;;;;;;3.42;3.00;;;;;;;;;;5012530;28;20219;-82
2022/06/27 01:59:00;;;;;;;3.50;3.20;;;;;;;;;;5011944;28;20691;-83
2022/06/27 02:01:27;;;;;;;9.02;3.20;;;;;;;;;;5012068;28;20246;-83
2022/06/27 02:03:54;;;;;;;6.82;3.80;;;;;;;;;;5011773;28;20235;-83
2022/06/27 02:06:21;;;;;;;4.20;3.50;;;;;;;;;;5012399;28;20199;-83
2022/06/27 02:08:51;;;;;;;5.78;4.00;;;;;;;;;;5011784;28;20239;-83
2022/06/27 02:11:19;;;;;;;4.57;3.92;;;;;;;;;;5013350;28;20227;-83
2022/06/27 02:13:47;;;;;;;5.85;3.67;;;;;;;;;;5015666;28;20222;-82
2022/06/27 02:16:16;;;;;;;5.60;4.22;;;;;;;;;;5016249;28;20210;-83
2022/06/27 02:18:44;;;;;;;5.82;4.30;;;;;;;;;;5015928;28;20199;-83
2022/06/27 02:21:12;;;;;;;6.68;4.10;;;;;;;;;;5016189;28;20234;-83
2022/06/27 02:23:39;;;;;;;7.05;3.60;;;;;;;;;;5015105;28;20668;-83
2022/06/27 02:26:07;;;;;;;5.95;4.43;;;;;;;;;;5016169;28;20215;-83
2022/06/27 02:28:35;;;;;;;4.13;3.83;;;;;;;;;;5015838;28;20211;-83
2022/06/27 02:31:05;;;;;;;4.65;4.25;;;;;;;;;;5015903;28;20203;-83
2022/06/27 02:33:35;;;;;;;4.55;4.18;;;;;;;;;;5015810;28;20227;-82
2022/06/27 02:36:03;;;;;;;4.60;4.20;;;;;;;;;;5015774;28;20579;-83
2022/06/27 02:38:30;;;;;;;5.28;4.65;;;;;;;;;;5015319;28;20218;-83
2022/06/27 02:40:59;;;;;;;5.07;4.65;;;;;;;;;;5015923;28;20231;-83
2022/06/27 02:43:27;;;;;;;7.25;4.80;;;;;;;;;;5015079;28;20283;-83
2022/06/27 02:45:55;;;;;;;5.70;4.85;;;;;;;;;;5015886;28;20207;-83
2022/06/27 02:48:24;;;;;;;7.22;5.00;;;;;;;;;;5015828;28;20218;-83
2022/06/27 02:50:52;;;;;;;6.30;5.05;;;;;;;;;;5028428;28;20226;-83
2022/06/27 02:53:20;;;;;;;6.72;5.13;;;;;;;;;;5015285;28;20203;-83
2022/06/27 02:55:50;;;;;;;5.93;5.32;;;;;;;;;;5014891;28;20707;-83
2022/06/27 02:58:20;;;;;;;6.47;5.03;;;;;;;;;;5015649;28;20211;-83
2022/06/27 03:00:49;;;;;;;5.22;4.82;;;;;;;;;;5014711;28;20243;-83
2022/06/27 03:03:17;;;;;;;6.22;5.13;;;;;;;;;;5015763;28;20242;-84
2022/06/27 03:05:59;;;;;;;7.10;5.35;;;;;;;;;;5014813;28;20235;-84
2022/06/27 03:08:26;;;;;;;9.52;5.80;;;;;;;;;;5014949;28;20218;-84
2022/06/27 03:10:53;;;;;;;5.28;4.80;;;;;;;;;;5015236;28;20211;-85
2022/06/27 03:13:20;;;;;;;5.15;4.75;;;;;;;;;;5015062;28;20211;-84
2022/06/27 03:15:47;;;;;;;6.32;5.55;;;;;;;;;;5014808;28;20238;-84
2022/06/27 03:18:15;;;;;;;5.93;5.40;;;;;;;;;;5015070;28;20206;-84
2022/06/27 03:20:42;;;;;;;6.38;5.28;;;;;;;;;;5014455;28;20291;-84
2022/06/27 03:23:12;;;;;;;5.60;5.00;;;;;;;;;;5014319;28;20580;-83
2022/06/27 03:25:39;;;;;;;6.68;6.10;;;;;;;;;;5014694;28;20239;-84
2022/06/27 03:28:06;;;;;;;6.45;5.72;;;;;;;;;;5015161;28;20211;-84
2022/06/27 03:30:34;;;;;;;6.45;5.95;;;;;;;;;;5014656;28;20459;-83
2022/06/27 03:33:01;;;;;;;8.52;5.75;;;;;;;;;;5015355;28;20223;-84
2022/06/27 03:35:28;;;;;;;5.63;5.22;;;;;;;;;;5014490;28;20239;-84
2022/06/27 03:37:55;;;;;;;6.90;5.63;;;;;;;;;;5015827;28;20208;-83
2022/06/27 03:40:23;;;;;;;12.15;7.25;;;;;;;;;;5014840;28;20235;-83
2022/06/27 03:42:50;;;;;;;8.03;6.97;;;;;;;;;;5015317;28;20234;-84
2022/06/27 03:45:18;;;;;;;8.98;6.80;;;;;;;;;;5014413;28;20246;-84
2022/06/27 03:47:50;;;;;;;8.68;7.03;;;;;;;;;;5015184;28;20239;-84
2022/06/27 03:50:16;;;;;;;7.10;6.40;;;;;;;;;;5014427;28;20781;-83
2022/06/27 03:52:43;;;;;;;8.27;7.47;;;;;;;;;;5015664;28;20322;-84
2022/06/27 03:55:10;;;;;;;7.90;7.10;;;;;;;;;;5015139;28;20231;-84
2022/06/27 03:57:39;;;;;;;7.45;6.85;;;;;;;;;;5015806;28;20222;-83
2022/06/27 04:00:08;;;;;;;8.93;6.93;;;;;;;;;;5015667;28;20239;-84
2022/06/27 04:02:35;;;;;;;7.90;7.10;;;;;;;;;;5015288;28;20602;-84
2022/06/27 04:05:02;;;;;;;9.43;7.47;;;;;;;;;;5015491;28;20239;-83
2022/06/27 04:07:29;;;;;;;7.33;6.53;;;;;;;;;;5016276;28;20704;-84
2022/06/27 04:09:56;;;;;;;7.30;6.60;;;;;;;;;;5015296;28;20231;-84
2022/06/27 04:12:24;;;;;;;8.23;7.43;;;;;;;;;;5015990;28;20598;-84
2022/06/27 04:14:52;;;;;;;7.13;6.43;;;;;;;;;;5015412;28;20238;-84
2022/06/27 04:17:19;;;;;;;7.77;6.97;;;;;;;;;;5015856;28;20268;-83
2022/06/27 04:19:46;;;;;;;7.93;7.13;;;;;;;;;;5015851;28;20235;-84
2022/06/27 04:22:13;;;;;;;9.17;8.10;;;;;;;;;;5015929;28;20227;-84
2022/06/27 04:24:41;;;;;;;10.70;8.37;;;;;;;;;;5023644;28;20235;-83
2022/06/27 04:27:08;;;;;;;9.00;8.18;;;;;;;;;;5023315;28;20222;-83
2022/06/27 04:29:36;;;;;;;9.97;7.77;;;;;;;;;;5018209;28;20239;-82
2022/06/27 04:32:07;;;;;;;9.17;8.27;;;;;;;;;;5019342;28;20293;-82
2022/06/27 04:34:34;;;;;;;9.47;8.13;;;;;;;;;;5016981;28;20242;-83
2022/06/27 04:37:03;;;;;;;9.67;8.63;;;;;;;;;;5018701;28;20533;-83
2022/06/27 04:39:30;;;;;;;9.10;8.20;;;;;;;;;;5018137;28;20246;-83
2022/06/27 04:41:57;;;;;;;8.75;7.85;;;;;;;;;;5018147;28;20233;-83
2022/06/27 04:44:25;;;;;;;8.45;7.63;;;;;;;;;;5017376;28;20239;-83
2022/06/27 04:46:53;;;;;;;9.30;7.82;;;;;;;;;;5018400;28;20661;-82
2022/06/27 04:49:21;;;;;;;9.57;7.83;;;;;;;;;;5019748;28;20239;-83
2022/06/27 04:51:50;;;;;;;10.80;8.33;;;;;;;;;;5020160;28;20219;-82
2022/06/27 04:54:17;;;;;;;9.85;8.52;;;;;;;;;;5019342;28;20322;-83
2022/06/27 04:56:45;;;;;;;10.97;9.37;;;;;;;;;;5020643;28;20211;-82
2022/06/27 04:59:12;;;;;;;9.90;8.90;;;;;;;;;;5021458;28;20242;-82
2022/06/27 05:01:39;;;;;;;10.27;9.27;;;;;;;;;;5021406;28;20237;-82
2022/06/27 05:04:06;;;;;;;9.90;8.90;;;;;;;;;;5022075;28;20617;-82
2022/06/27 05:06:35;;;;;;;10.95;9.77;;;;;;;;;;5018802;28;20200;-84
2022/06/27 05:09:02;;;;;;;11.98;10.00;;;;;;;;;;5015865;28;20223;-83
2022/06/27 05:11:29;;;;;;;10.63;9.52;;;;;;;;;;5019729;28;20676;-82
2022/06/27 05:13:56;;;;;;;13.23;9.75;;;;;;;;;;5020923;28;20302;-82
2022/06/27 05:16:23;;;;;;;10.30;9.37;;;;;;;;;;5021998;28;20218;-82
2022/06/27 05:18:50;;;;;;;11.07;9.77;;;;;;;;;;5020406;28;20235;-83
2022/06/27 05:21:18;;;;;;;13.67;9.60;;;;;;;;;;5020609;28;20294;-83
2022/06/27 05:23:46;;;;;;;10.73;9.52;;;;;;;;;;5020151;28;20242;-82
2022/06/27 05:26:13;;;;;;;10.65;9.55;;;;;;;;;;5020979;28;20299;-83
2022/06/27 05:28:40;;;;;;;10.52;9.52;;;;;;;;;;5021618;28;20219;-82
2022/06/27 05:31:07;;;;;;;14.38;9.95;;;;;;;;;;5020821;28;20235;-82
2022/06/27 05:33:34;;;;;;;10.18;9.10;;;;;;;;;;5020724;28;20604;-82
2022/06/27 05:36:01;;;;;;;11.85;10.65;;;;;;;;;;5020070;28;20432;-82
2022/06/27 05:38:28;;;;;;;10.75;9.73;;;;;;;;;;5019890;28;20211;-83
2022/06/27 05:40:57;;;;;;;11.32;9.73;;;;;;;;;;5019930;28;20234;-83
2022/06/27 05:43:24;;;;;;;12.90;9.32;;;;;;;;;;5018909;28;20213;-83
2022/06/27 05:45:52;;;;;;;14.43;9.65;;;;;;;;;;5020054;28;20592;-82
2022/06/27 05:48:20;;;;;;;13.57;9.35;;;;;;;;;;5022910;28;20770;-82
2022/06/27 05:50:47;;;;;;;10.63;9.25;;;;;;;;;;5022229;28;20235;-82
2022/06/27 05:53:15;;;;;;;10.27;9.10;;;;;;;;;;5021842;28;20206;-83
2022/06/27 05:55:45;;;;;;;9.30;8.35;;;;;;;;;;5023131;28;20621;-82
2022/06/27 05:58:14;;;;;;;11.15;8.35;;;;;;;;;;5023588;28;20684;-82
2022/06/27 06:00:41;;;;;;;10.80;7.95;;;;;;;;;;5030444;28;20230;-82
2022/06/27 06:03:08;;;;;;;8.23;7.50;;;;;;;;;;5044203;28;20226;-82
2022/06/27 06:05:35;;;;;;;8.57;7.78;;;;;;;;;;5043023;28;20234;-81
2022/06/27 06:08:03;;;;;;;8.15;6.47;;;;;;;;;;5044573;28;20210;-81
2022/06/27 06:10:30;;;;;;;6.95;6.35;;;;;;;;;;5043953;28;20234;-81
2022/06/27 06:12:58;;;;;;;6.30;5.70;;;;;;;;;;5043985;28;20237;-82
2022/06/27 06:15:26;;;;;;;6.20;5.70;;;;;;;;;;5044218;28;20306;-82
2022/06/27 06:17:54;;;;;;;6.25;5.65;;;;;;;;;;5044410;28;20199;-82
2022/06/27 06:20:22;;;;;;;5.60;5.05;;;;;;;;;;5044366;28;20246;-82
2022/06/27 06:22:49;;;;;;;6.28;5.43;;;;;;;;;;5044249;28;20229;-83
2022/06/27 06:25:16;;;;;;;7.10;5.28;;;;;;;;;;5043206;28;20317;-82
2022/06/27 06:27:44;;;;;;;8.40;4.97;;;;;;;;;;5044209;28;20210;-81
2022/06/27 06:30:12;;;;;;;6.03;4.05;;;;;;;;;;5045568;28;20747;-82
2022/06/27 06:32:40;;;;;;;6.07;4.90;;;;;;;;;;5045449;28;20425;-82
2022/06/27 06:35:08;;;;;;;4.70;4.28;;;;;;;;;;5045042;28;20249;-81
2022/06/27 06:37:38;;;;;;;5.28;4.68;;;;;;;;;;5045871;28;20237;-82
2022/06/27 06:40:05;;;;;;;7.93;4.72;;;;;;;;;;5044933;28;20269;-81
2022/06/27 06:42:35;;;;;;;6.35;4.40;;;;;;;;;;5044740;28;20237;-82
2022/06/27 06:45:03;;;;;;;6.68;4.57;;;;;;;;;;5043593;28;20230;-81
2022/06/27 06:47:31;;;;;;;4.38;4.03;;;;;;;;;;5044024;28;20563;-81
2022/06/27 06:50:00;;;;;;;6.70;4.68;;;;;;;;;;5044422;28;20254;-82
2022/06/27 06:52:30;;;;;;;5.75;4.43;;;;;;;;;;5044133;28;20233;-82
2022/06/27 06:54:57;;;;;;;4.55;4.15;;;;;;;;;;5043079;28;20238;-82
2022/06/27 06:57:24;;;;;;;6.40;4.50;;;;;;;;;;5044399;28;20237;-81
2022/06/27 06:59:51;;;;;;;5.80;5.20;;;;;;;;;;5043591;28;20245;-81
2022/06/27 07:02:18;;;;;;;5.30;4.72;;;;;;;;;;5044460;28;20241;-82
2022/06/27 07:04:47;;;;;;;6.40;4.90;;;;;;;;;;5043804;28;20234;-81
2022/06/27 07:07:19;;;;;;;4.57;4.07;;;;;;;;;;5045370;28;20226;-83
2022/06/27 07:09:46;;;;;;;6.78;4.03;;;;;;;;;;5044989;28;20238;-82
2022/06/27 07:12:13;;;;;;;4.63;4.13;;;;;;;;;;5044997;28;20242;-82
2022/06/27 07:14:51;;;;;;;4.05;3.42;;;;;;;;;;5045512;28;20322;-82
2022/06/27 07:17:19;;;;;;;5.38;3.80;;;;;;;;;;5045945;28;20245;-83
2022/06/27 07:19:49;;;;;;;5.30;3.60;;;;;;;;;;5046353;28;20239;-83
2022/06/27 07:22:19;;;;;;;5.10;3.90;;;;;;;;;;5046059;28;20227;-83
2022/06/27 07:24:47;;;;;;;5.35;4.85;;;;;;;;;;5052654;28;20234;-82
2022/06/27 07:27:15;;;;;;;4.97;4.07;;;;;;;;;;5041632;28;20730;-82
2022/06/27 07:29:42;;;;;;;6.00;4.75;;;;;;;;;;5045436;28;20233;-83
2022/06/27 07:32:09;;;;;;;4.82;4.43;;;;;;;;;;5056268;28;20277;-83
2022/06/27 07:34:36;;;;;;;5.13;4.63;;;;;;;;;;5048576;28;20247;-82
2022/06/27 07:37:04;;;;;;;5.53;5.03;;;;;;;;;;5037522;28;20217;-82
2022/06/27 07:39:32;;;;;;;5.97;5.38;;;;;;;;;;5038520;28;20757;-82
2022/06/27 07:41:59;;;;;;;6.53;5.93;;;;;;;;;;5038338;28;20230;-83
2022/06/27 07:44:26;;;;;;;7.07;5.97;;;;;;;;;;5037472;28;20238;-82
2022/06/27 07:46:56;;;;;;;6.03;5.43;;;;;;;;;;5047264;28;20562;-83
2022/06/27 07:49:23;;;;;;;6.72;5.70;;;;;;;;;;5035114;28;20288;-83
2022/06/27 07:51:50;;;;;;;6.43;5.80;;;;;;;;;;5035460;28;20258;-83
2022/06/27 07:54:19;;;;;;;7.78;5.85;;;;;;;;;;5034885;28;20587;-83
2022/06/27 07:56:47;;;;;;;6.32;4.90;;;;;;;;;;5036656;28;20318;-83
2022/06/27 07:59:15;;;;;;;4.68;4.28;;;;;;;;;;5035970;28;20645;-83
2022/06/27 08:01:42;;;;;;;7.47;4.13;;;;;;;;;;5036233;28;20230;-83
2022/06/27 08:04:11;;;;;;;10.95;4.82;;;;;;;;;;5036577;28;20234;-83
2022/06/27 08:06:38;;;;;;;6.40;4.70;;;;;;;;;;5037501;28;20758;-84
2022/06/27 08:09:06;;;;;;;5.90;5.28;;;;;;;;;;5037815;28;20769;-84
2022/06/27 08:11:34;;;;;;;5.50;5.00;;;;;;;;;;5038727;28;20644;-84
2022/06/27 08:14:05;;;;;;;6.22;5.05;;;;;;;;;;5037742;28;20715;-83
2022/06/27 08:16:33;;;;;;;4.50;4.10;;;;;;;;;;5040296;28;20211;-83
2022/06/27 08:19:00;;;;;;;4.30;3.90;;;;;;;;;;5039552;28;20241;-84
2022/06/27 08:21:28;;;;;;;5.32;3.92;;;;;;;;;;5041913;28;20241;-83
2022/06/27 08:23:58;;;;;;;5.53;3.92;;;;;;;;;;5040386;28;20234;-83
2022/06/27 08:26:25;;;;;;;4.85;4.40;;;;;;;;;;5040170;28;20317;-82
2022/06/27 08:28:54;;;;;;;4.10;3.80;;;;;;;;;;5040226;28;20234;-83
2022/06/27 08:31:23;;;;;;;3.40;3.10;;;;;;;;;;5042879;28;20242;-83
2022/06/27 08:33:50;;;;;;;3.92;3.63;;;;;;;;;;5045355;28;20269;-82
2022/06/27 08:36:19;;;;;;;5.20;3.70;;;;;;;;;;5040962;28;20207;-82
2022/06/27 08:38:48;;;;;;;4.75;3.50;;;;;;;;;;5041508;28;20230;-82
2022/06/27 08:41:16;;;;;;;4.65;3.55;;;;;;;;;;5043308;28;20299;-82
2022/06/27 08:43:46;;;;;;;3.67;3.33;;;;;;;;;;5040082;28;20234;-82
2022/06/27 08:46:13;;;;;;;3.58;3.28;;;;;;;;;;5043640;28;20271;-82
2022/06/27 08:48:42;;;;;;;5.75;3.67;;;;;;;;;;5042825;28;20671;-83
2022/06/27 08:51:10;;;;;;;5.25;4.78;;;;;;;;;;5041239;28;20301;-83
2022/06/27 08:53:38;;;;;;;4.35;4.00;;;;;;;;;;5041022;28;20207;-84
2022/06/27 08:56:08;;;;;;;6.68;3.80;;;;;;;;;;5042120;28;20202;-83
2022/06/27 08:58:36;;;;;;;4.50;3.38;;;;;;;;;;5040198;28;20195;-83
2022/06/27 09:01:04;;;;;;;5.55;4.15;;;;;;;;;;5043085;28;21031;-84
2022/06/27 09:03:32;;;;;;;4.05;3.75;;;;;;;;;;5040070;23;20267;-85
2022/06/27 09:06:01;;;;;;;6.97;3.53;;;;;;;;;;5033433;28;20198;-85
2022/06/27 09:08:29;;;;;;;10.23;3.95;;;;;;;;;;5034292;28;20202;-85
2022/06/27 09:10:57;;;;;;;3.70;3.40;;;;;;;;;;5032840;28;20206;-85
2022/06/27 09:13:25;;;;;;;4.32;3.20;;;;;;;;;;5031642;28;20234;-85
2022/06/27 09:15:54;;;;;;;4.82;3.55;;;;;;;;;;5032572;28;20211;-85
2022/06/27 09:18:22;;;;;;;2.90;2.70;;;;;;;;;;5032443;28;20585;-85
2022/06/27 09:20:50;;;;;;;2.85;2.65;;;;;;;;;;5031563;28;20231;-85
2022/06/27 09:23:42;;;;;;;4.15;3.03;;;;;;;;;;5031783;28;20258;-85
2022/06/27 09:26:12;;;;;;;3.33;3.10;;;;;;;;;;5013934;28;20230;-84
2022/06/27 09:28:44;;;;;;;3.88;3.38;;;;;;;;;;5031637;28;20210;-84
2022/06/27 09:31:12;;;;;;;3.00;2.70;;;;;;;;;;5031932;28;20207;-84
2022/06/27 09:33:41;;;;;;;3.33;3.00;;;;;;;;;;5031370;28;20237;-84
2022/06/27 09:36:13;;;;;;;3.63;3.33;;;;;;;;;;5032032;28;20261;-84
2022/06/27 09:38:41;;;;;;;3.30;3.00;;;;;;;;;;5031685;28;20288;-85
2022/06/27 09:41:10;;;;;;;3.90;3.47;;;;;;;;;;5032075;28;20210;-84
2022/06/27 09:43:40;;;;;;;3.08;2.78;;;;;;;;;;5031287;28;20234;-85
2022/06/27 09:46:07;;;;;;;3.67;3.13;;;;;;;;;;5032152;28;20214;-83
2022/06/27 09:48:37;;;;;;;3.17;2.92;;;;;;;;;;5032227;28;20602;-84
2022/06/27 09:51:04;;;;;;;6.10;2.83;;;;;;;;;;5032752;28;20215;-83
2022/06/27 09:53:32;;;;;;;2.75;2.55;;;;;;;;;;5031545;28;20226;-83
2022/06/27 09:56:00;;;;;;;2.63;2.40;;;;;;;;;;5033030;28;20217;-84
2022/06/27 09:58:29;;;;;;;3.72;2.50;;;;;;;;;;5031950;28;20306;-83
2022/06/27 10:00:57;;;;;;;2.83;2.40;;;;;;;;;;5025309;28;20196;-83
2022/06/27 10:03:25;;;;;;;2.65;2.45;;;;;;;;;;5011787;28;20249;-84
2022/06/27 10:05:52;;;;;;;4.22;2.78;;;;;;;;;;5012684;28;20208;-84
2022/06/27 10:08:23;;;;;;;2.70;2.35;;;;;;;;;;5012421;28;20214;-84
2022/06/27 10:11:08;;;;;;;5.85;2.38;;;;;;;;;;5012858;28;20281;-84
2022/06/27 10:13:35;;;;;;;3.50;2.40;;;;;;;;;;5011962;28;20227;-84
2022/06/27 10:16:08;;;;;;;2.50;2.30;;;;;;;;;;5012736;28;20211;-85
2022/06/27 10:18:54;;;;;;;2.95;2.15;;;;;;;;;;5014240;28;20212;-85
2022/06/27 10:21:28;;;;;;;2.13;2.03;;;;;;;;;;5014495;28;20207;-85
2022/06/27 10:24:13;;;;;;;5.18;2.38;;;;;;;;;;5011984;28;20242;-85
2022/06/27 10:26:41;;;;;;;2.00;1.90;;;;;;;;;;5012634;28;20211;-85
2022/06/27 10:29:26;;;;;;;2.50;2.30;;;;;;;;;;5012876;28;20231;-85
2022/06/27 10:31:54;;;;;;;2.10;2.00;;;;;;;;;;5013067;28;20687;-85
2022/06/27 10:34:46;;;;;;;9.55;1.98;;;;;;;;;;5016451;28;20250;-86
2022/06/27 10:37:32;;;;;;;3.17;1.88;;;;;;;;;;5016787;28;20667;-85
2022/06/27 10:40:14;;;;;;;2.70;2.22;;;;;;;;;;5016338;28;20242;-85
2022/06/27 10:42:48;;;;;;;2.28;2.00;;;;;;;;;;5015966;28;20254;-85
2022/06/27 10:45:24;;;;;;;1.92;1.70;;;;;;;;;;5015662;28;20235;-85
2022/06/27 10:47:57;;;;;;;2.17;1.98;;;;;;;;;;5016634;28;20203;-85
2022/06/27 10:50:25;;;;;;;2.30;2.10;;;;;;;;;;5016238;28;20285;-85
2022/06/27 10:53:12;;;;;;;2.97;2.10;;;;;;;;;;5016931;28;20227;-86
2022/06/27 10:55:40;;;;;;;2.35;2.15;;;;;;;;;;5016042;28;20246;-85
2022/06/27 10:58:20;;;;;;;2.50;2.03;;;;;;;;;;5017836;28;20211;-85
2022/06/27 11:00:52;;;;;;;2.30;2.10;;;;;;;;;;5017106;28;20587;-85
2022/06/27 11:03:24;;;;;;;2.53;2.33;;;;;;;;;;5019657;28;20289;-85
2022/06/27 11:05:53;;;;;;;2.40;2.20;;;;;;;;;;5017407;28;20314;-86
2022/06/27 11:08:20;;;;;;;4.00;2.72;;;;;;;;;;5016928;28;20206;-86
2022/06/27 11:10:49;;;;;;;2.83;2.63;;;;;;;;;;5017033;28;20239;-86
2022/06/27 11:13:31;;;;;;;3.42;2.80;;;;;;;;;;5015961;28;20223;-86
2022/06/27 11:15:58;;;;;;;3.78;3.17;;;;;;;;;;5015469;28;20585;-86
2022/06/27 11:18:27;;;;;;;2.92;2.72;;;;;;;;;;5015253;28;20583;-86
2022/06/27 11:20:57;;;;;;;3.20;2.90;;;;;;;;;;5015875;28;20675;-86
2022/06/27 11:23:24;;;;;;;3.60;3.30;;;;;;;;;;5014788;28;20231;-86
2022/06/27 11:25:55;;;;;;;3.63;3.30;;;;;;;;;;5018006;28;20215;-87
2022/06/27 11:33:52;;;;;;;2.47;2.28;;;;;;;;;;5014567;28;20258;-86
2022/06/27 11:36:19;;;;;;;2.30;2.13;;;;;;;;;;5015109;28;20702;-85
2022/06/27 11:38:47;;;;;;;3.63;2.15;;;;;;;;;;5014323;28;20231;-85
2022/06/27 11:41:15;;;;;;;3.20;2.45;;;;;;;;;;5015075;28;20298;-85
2022/06/27 11:43:49;;;;;;;2.70;2.50;;;;;;;;;;5016952;28;20354;-85
2022/06/27 11:46:23;;;;;;;2.67;2.47;;;;;;;;;;5016216;28;20418;-86
2022/06/27 11:48:56;;;;;;;3.08;2.63;;;;;;;;;;5015505;28;20242;-85
2022/06/27 11:51:26;;;;;;;2.15;2.05;;;;;;;;;;5014914;28;20672;-85
2022/06/27 11:53:54;;;;;;;2.58;2.10;;;;;;;;;;5014152;28;20692;-86
2022/06/27 11:56:21;;;;;;;2.50;2.30;;;;;;;;;;5014890;28;20215;-85
2022/06/27 11:58:52;;;;;;;2.85;2.65;;;;;;;;;;5013674;28;20235;-85
2022/06/27 12:01:19;;;;;;;2.55;2.35;;;;;;;;;;5014745;28;20273;-86
2022/06/27 12:04:05;;;;;;;2.55;2.13;;;;;;;;;;5013782;28;20629;-85
2022/06/27 12:06:40;;;;;;;2.42;2.33;;;;;;;;;;5015379;28;20215;-86
2022/06/27 12:09:08;;;;;;;2.60;2.40;;;;;;;;;;5015602;28;20230;-85
2022/06/27 12:11:35;;;;;;;4.57;2.90;;;;;;;;;;5015818;28;20760;-85
2022/06/27 12:14:02;;;;;;;4.50;3.05;;;;;;;;;;5013867;28;20239;-86
2022/06/27 12:16:30;;;;;;;2.92;2.72;;;;;;;;;;5014087;28;20706;-85
2022/06/27 12:18:57;;;;;;;5.10;3.00;;;;;;;;;;5013656;28;20326;-86
2022/06/27 12:21:24;;;;;;;3.20;2.90;;;;;;;;;;5015049;28;20214;-86
2022/06/27 12:23:52;;;;;;;3.38;2.80;;;;;;;;;;5019367;28;20234;-86
2022/06/27 12:26:19;;;;;;;3.47;2.67;;;;;;;;;;5015617;28;20211;-85
2022/06/27 12:28:50;;;;;;;3.40;3.10;;;;;;;;;;5014357;28;20230;-84
2022/06/27 12:31:17;;;;;;;4.20;2.83;;;;;;;;;;5013696;28;20695;-85
2022/06/27 12:33:45;;;;;;;3.10;2.50;;;;;;;;;;5012991;28;20706;-86
2022/06/27 12:36:14;;;;;;;2.95;2.75;;;;;;;;;;5013642;28;20211;-86
2022/06/27 12:38:41;;;;;;;3.95;2.90;;;;;;;;;;5013552;28;20262;-87
2022/06/27 12:41:15;;;;;;;3.17;2.67;;;;;;;;;;5013537;28;20219;-86
2022/06/27 12:43:42;;;;;;;2.88;2.67;;;;;;;;;;5015235;28;20602;-86
2022/06/27 12:46:10;;;;;;;5.13;2.25;;;;;;;;;;5013524;28;20207;-86
2022/06/27 12:48:38;;;;;;;1.75;1.65;;;;;;;;;;5013323;28;20216;-86
2022/06/27 12:51:07;;;;;;;1.95;1.80;;;;;;;;;;5013769;28;20215;-86
2022/06/27 12:53:34;;;;;;;1.23;1.23;;;;;;;;;;5013217;28;20671;-86
2022/06/27 12:56:02;;;;;;;1.25;1.25;;;;;;;;;;5013248;28;20301;-86
2022/06/27 12:58:31;;;;;;;1.35;1.25;;;;;;;;;;5013869;28;20257;-86
2022/06/27 13:00:58;;;;;;;1.55;1.45;;;;;;;;;;5022551;28;20210;-84
2022/06/27 13:03:25;;;;;;;1.60;1.50;;;;;;;;;;5032602;28;20234;-84
2022/06/27 13:05:52;;;;;;;1.17;1.17;;;;;;;;;;5033422;28;20214;-85
2022/06/27 13:08:20;;;;;;;1.67;1.58;;;;;;;;;;5033644;28;20217;-85
2022/06/27 13:10:47;;;;;;;1.02;1.00;;;;;;;;;;5032688;28;20238;-85
2022/06/27 13:13:14;;;;;;;1.52;1.35;;;;;;;;;;5033497;28;20230;-85
2022/06/27 13:15:42;;;;;;;1.33;1.33;;;;;;;;;;5033443;28;20230;-85
2022/06/27 13:18:10;;;;;;;1.83;1.40;;;;;;;;;;5033709;28;20212;-86
2022/06/27 13:20:37;;;;;;;2.05;1.27;;;;;;;;;;5032242;28;20238;-86
2022/06/27 13:23:04;;;;;;;1.05;1.05;;;;;;;;;;5032099;28;20258;-85
2022/06/27 13:25:31;;;;;;;1.10;1.10;;;;;;;;;;5032701;28;20254;-83
2022/06/27 13:27:58;;;;;;;1.48;1.08;;;;;;;;;;5033418;28;20552;-84
2022/06/27 13:30:26;;;;;;;0.98;0.98;;;;;;;;;;5032234;28;20238;-85
2022/06/27 13:32:57;;;;;;;1.00;1.00;;;;;;;;;;5033563;28;20230;-85
2022/06/27 13:35:25;;;;;;;1.00;0.93;;;;;;;;;;5032059;28;20234;-86
2022/06/27 13:37:52;;;;;;;1.88;1.73;;;;;;;;;;5033349;28;20209;-87
2022/06/27 13:40:19;;;;;;;1.80;1.70;;;;;;;;;;5033101;28;20244;-86
2022/06/27 13:42:47;;;;;;;2.65;1.60;;;;;;;;;;5033651;28;20647;-86
2022/06/27 13:45:14;;;;;;;1.92;1.80;;;;;;;;;;5032566;28;20230;-86
2022/06/27 13:47:41;;;;;;;1.80;1.70;;;;;;;;;;5033060;28;20210;-86
2022/06/27 13:50:10;;;;;;;2.40;2.20;;;;;;;;;;5032636;28;20600;-86
2022/06/27 13:52:37;;;;;;;3.08;1.73;;;;;;;;;;5032861;28;20227;-86
2022/06/27 13:55:04;;;;;;;3.10;1.98;;;;;;;;;;5032546;28;20240;-86
2022/06/27 13:57:31;;;;;;;1.80;1.70;;;;;;;;;;5037320;28;20221;-86
2022/06/27 13:59:59;;;;;;;1.98;1.88;;;;;;;;;;5031767;28;20288;-86
2022/06/27 14:02:26;;;;;;;1.85;1.75;;;;;;;;;;5033204;28;20203;-85
2022/06/27 14:04:53;;;;;;;1.98;1.83;;;;;;;;;;5038666;28;20234;-85
2022/06/27 14:07:39;;;;;;;2.60;1.70;;;;;;;;;;5034275;28;20211;-85
2022/06/27 14:10:07;;;;;;;1.83;1.73;;;;;;;;;;5035696;28;20288;-85
2022/06/27 14:12:34;;;;;;;1.88;1.77;;;;;;;;;;5035580;28;20238;-86
2022/06/27 14:15:01;;;;;;;1.90;1.80;;;;;;;;;;5035272;28;20241;-86
2022/06/27 14:17:28;;;;;;;2.42;2.15;;;;;;;;;;5036034;28;20202;-86
2022/06/27 14:19:55;;;;;;;1.63;1.52;;;;;;;;;;5043111;28;20234;-86
2022/06/27 14:22:23;;;;;;;1.70;1.60;;;;;;;;;;5037615;28;20203;-85
2022/06/27 14:24:50;;;;;;;2.45;1.67;;;;;;;;;;5035521;28;20246;-86
2022/06/27 14:27:18;;;;;;;3.53;1.60;;;;;;;;;;5036140;28;20620;-87
2022/06/27 14:29:45;;;;;;;2.20;2.03;;;;;;;;;;5035251;28;20230;-86
2022/06/27 14:32:13;;;;;;;1.67;1.58;;;;;;;;;;5035429;28;20667;-86
2022/06/27 14:34:40;;;;;;;2.97;1.42;;;;;;;;;;5035016;28;20230;-85
2022/06/27 14:37:07;;;;;;;2.70;0.95;;;;;;;;;;5035869;28;20233;-84
2022/06/27 14:39:35;;;;;;;1.00;1.00;;;;;;;;;;5038157;28;20231;-84
2022/06/27 14:42:12;;;;;;;2.70;0.93;;;;;;;;;;5037041;28;20234;-85
2022/06/27 14:44:39;;;;;;;1.05;1.05;;;;;;;;;;5034627;28;20245;-85
2022/06/27 14:47:07;;;;;;;0.93;0.80;;;;;;;;;;5036032;28;20686;-85
2022/06/27 14:49:34;;;;;;;1.08;1.00;;;;;;;;;;5035354;28;20254;-85
2022/06/27 14:52:01;;;;;;;1.23;0.80;;;;;;;;;;5035904;28;20213;-86
2022/06/27 14:54:29;;;;;;;0.90;0.90;;;;;;;;;;5035155;28;20691;-84